Terminal Aerodrome Forecast
Issued by NWS Tulsa, OK

Home | Current Version | Previous Version | Text Only | Print | Product List | Glossary On
Versions: 1 2 3 4 5 6 7 8 9 10 11 12
799
FTUS44 KTSA 120524
TAFFSM
TAF
KFSM 120524Z 1206/1306 08004KT P6SM SCT200
     FM121200 30002KT P6SM SCT120 BKN200
     FM121600 32010KT P6SM SCT120 BKN200
     FM122200 35010KT P6SM SCT250
     FM130400 02008KT P6SM BKN250=

USA.gov is the U.S. government's official web portal to all federal, state and local government web resources and services.